Portola, California
Current Conditions -  °F | °C
As of 3:15 PM on Sunday 21 Dec 2014 (Local Time) from KRTS Reporting Station
Overcast Overcast  
Wind Chill: 12°   Ceiling: 3400
Heat Index: 12°   Visibility: 10mi
Dew Point:   Wind: 16mph
Humidity: 62%   Direction: 300°WNW
Pressure: 30.23"   Gusts: 25mph
Location:  39.81°N, 120.47°W
Report Text: KRTS 212315Z AUTO 30014G22KT 10SM OVC034 12/05 A3023 RMK AO2
Loading
Personal Weather Stations






























Interactive Weather Map New forecast layout! Learn more

10-Day Weather Forecast

Advertisements
Track Severe Weather on mobile